sensor_id;sensor_type;location;lat;lon;timestamp;P1;durP1;ratioP1;P2;durP2;ratioP2
73104;SDS011;61296;50.526;30.792;2023-11-22T00:05:07;35.67;;;13.68;;
73104;SDS011;61296;50.526;30.792;2023-11-22T00:20:41;33.75;;;13.10;;
73104;SDS011;61296;50.526;30.792;2023-11-22T00:36:14;43.08;;;16.95;;
73104;SDS011;61296;50.526;30.792;2023-11-22T00:51:49;39.88;;;16.30;;
73104;SDS011;61296;50.526;30.792;2023-11-22T01:07:25;44.80;;;16.47;;
73104;SDS011;61296;50.526;30.792;2023-11-22T01:22:58;43.72;;;16.65;;
73104;SDS011;61296;50.526;30.792;2023-11-22T01:38:31;40.47;;;16.38;;
73104;SDS011;61296;50.526;30.792;2023-11-22T01:54:04;42.72;;;16.88;;
73104;SDS011;61296;50.526;30.792;2023-11-22T02:09:40;44.20;;;17.07;;
73104;SDS011;61296;50.526;30.792;2023-11-22T02:25:13;43.22;;;17.20;;
73104;SDS011;61296;50.526;30.792;2023-11-22T02:40:47;38.53;;;16.23;;
73104;SDS011;61296;50.526;30.792;2023-11-22T02:56:22;45.63;;;16.85;;
73104;SDS011;61296;50.526;30.792;2023-11-22T03:11:55;84.38;;;29.15;;
73104;SDS011;61296;50.526;30.792;2023-11-22T03:27:28;47.70;;;17.88;;
73104;SDS011;61296;50.526;30.792;2023-11-22T03:43:01;49.65;;;19.00;;
73104;SDS011;61296;50.526;30.792;2023-11-22T03:58:34;52.00;;;17.58;;
73104;SDS011;61296;50.526;30.792;2023-11-22T04:14:07;50.17;;;18.05;;
73104;SDS011;61296;50.526;30.792;2023-11-22T04:29:40;55.47;;;20.58;;
73104;SDS011;61296;50.526;30.792;2023-11-22T04:45:13;56.47;;;21.58;;
73104;SDS011;61296;50.526;30.792;2023-11-22T05:00:46;61.45;;;23.13;;
73104;SDS011;61296;50.526;30.792;2023-11-22T05:16:19;55.63;;;21.23;;
73104;SDS011;61296;50.526;30.792;2023-11-22T05:31:53;51.60;;;20.15;;
73104;SDS011;61296;50.526;30.792;2023-11-22T05:47:26;33.17;;;14.07;;
73104;SDS011;61296;50.526;30.792;2023-11-22T06:03:00;22.58;;;10.35;;
73104;SDS011;61296;50.526;30.792;2023-11-22T06:18:33;18.33;;;8.50;;
73104;SDS011;61296;50.526;30.792;2023-11-22T06:34:06;22.27;;;10.13;;
73104;SDS011;61296;50.526;30.792;2023-11-22T06:49:39;20.42;;;9.10;;
73104;SDS011;61296;50.526;30.792;2023-11-22T07:05:12;18.75;;;7.93;;
73104;SDS011;61296;50.526;30.792;2023-11-22T07:20:45;12.45;;;6.55;;
73104;SDS011;61296;50.526;30.792;2023-11-22T07:36:20;15.10;;;7.15;;
73104;SDS011;61296;50.526;30.792;2023-11-22T07:51:52;11.70;;;6.15;;
73104;SDS011;61296;50.526;30.792;2023-11-22T08:07:25;15.48;;;6.55;;
73104;SDS011;61296;50.526;30.792;2023-11-22T08:22:59;17.02;;;6.80;;
73104;SDS011;61296;50.526;30.792;2023-11-22T08:38:33;17.38;;;7.65;;
73104;SDS011;61296;50.526;30.792;2023-11-22T08:54:06;13.38;;;6.72;;
73104;SDS011;61296;50.526;30.792;2023-11-22T09:09:40;13.40;;;6.50;;
73104;SDS011;61296;50.526;30.792;2023-11-22T09:25:16;13.93;;;7.28;;
73104;SDS011;61296;50.526;30.792;2023-11-22T09:40:51;12.88;;;6.22;;
73104;SDS011;61296;50.526;30.792;2023-11-22T09:56:24;15.30;;;6.65;;
73104;SDS011;61296;50.526;30.792;2023-11-22T10:12:01;14.25;;;6.22;;
73104;SDS011;61296;50.526;30.792;2023-11-22T10:27:34;10.77;;;5.47;;
73104;SDS011;61296;50.526;30.792;2023-11-22T10:43:07;10.50;;;5.10;;
73104;SDS011;61296;50.526;30.792;2023-11-22T10:58:49;10.60;;;5.30;;
73104;SDS011;61296;50.526;30.792;2023-11-22T11:14:24;13.07;;;5.88;;
73104;SDS011;61296;50.526;30.792;2023-11-22T11:29:58;11.95;;;5.63;;
73104;SDS011;61296;50.526;30.792;2023-11-22T11:45:44;11.85;;;4.75;;
73104;SDS011;61296;50.526;30.792;2023-11-22T12:01:19;12.73;;;4.95;;
73104;SDS011;61296;50.526;30.792;2023-11-22T12:16:54;10.50;;;5.07;;
73104;SDS011;61296;50.526;30.792;2023-11-22T12:32:32;12.70;;;5.30;;
73104;SDS011;61296;50.526;30.792;2023-11-22T12:48:22;11.60;;;4.82;;
73104;SDS011;61296;50.526;30.792;2023-11-22T13:03:56;9.52;;;4.97;;
73104;SDS011;61296;50.526;30.792;2023-11-22T13:19:28;7.78;;;4.30;;
73104;SDS011;61296;50.526;30.792;2023-11-22T13:35:02;9.70;;;4.68;;
73104;SDS011;61296;50.526;30.792;2023-11-22T13:50:43;13.63;;;5.35;;
73104;SDS011;61296;50.526;30.792;2023-11-22T14:06:16;13.82;;;5.68;;
73104;SDS011;61296;50.526;30.792;2023-11-22T14:21:52;11.83;;;5.23;;
73104;SDS011;61296;50.526;30.792;2023-11-22T14:37:26;12.07;;;4.35;;
73104;SDS011;61296;50.526;30.792;2023-11-22T14:52:58;17.67;;;6.82;;
73104;SDS011;61296;50.526;30.792;2023-11-22T15:08:31;6.97;;;3.25;;
73104;SDS011;61296;50.526;30.792;2023-11-22T15:24:06;6.13;;;2.92;;
73104;SDS011;61296;50.526;30.792;2023-11-22T15:39:39;6.28;;;3.58;;
73104;SDS011;61296;50.526;30.792;2023-11-22T15:55:11;8.00;;;3.85;;
73104;SDS011;61296;50.526;30.792;2023-11-22T16:10:44;9.43;;;4.57;;
73104;SDS011;61296;50.526;30.792;2023-11-22T16:26:17;10.13;;;4.47;;
73104;SDS011;61296;50.526;30.792;2023-11-22T16:41:51;15.25;;;4.60;;
73104;SDS011;61296;50.526;30.792;2023-11-22T16:57:24;10.25;;;4.88;;
73104;SDS011;61296;50.526;30.792;2023-11-22T17:12:57;11.57;;;4.40;;
73104;SDS011;61296;50.526;30.792;2023-11-22T17:28:30;10.43;;;4.65;;
73104;SDS011;61296;50.526;30.792;2023-11-22T17:44:03;8.88;;;4.38;;
73104;SDS011;61296;50.526;30.792;2023-11-22T17:59:36;9.57;;;4.13;;
73104;SDS011;61296;50.526;30.792;2023-11-22T18:15:09;8.95;;;4.50;;
73104;SDS011;61296;50.526;30.792;2023-11-22T18:30:48;8.40;;;4.28;;
73104;SDS011;61296;50.526;30.792;2023-11-22T18:46:22;9.15;;;3.85;;
73104;SDS011;61296;50.526;30.792;2023-11-22T19:17:36;6.90;;;3.72;;
73104;SDS011;61296;50.526;30.792;2023-11-22T19:33:09;10.65;;;5.43;;
73104;SDS011;61296;50.526;30.792;2023-11-22T19:48:42;12.45;;;5.15;;
73104;SDS011;61296;50.526;30.792;2023-11-22T20:04:16;10.07;;;4.35;;
73104;SDS011;61296;50.526;30.792;2023-11-22T20:19:49;12.05;;;5.28;;
73104;SDS011;61296;50.526;30.792;2023-11-22T20:35:24;16.70;;;7.50;;
73104;SDS011;61296;50.526;30.792;2023-11-22T20:50:57;13.55;;;4.88;;
73104;SDS011;61296;50.526;30.792;2023-11-22T21:06:30;16.02;;;5.90;;
73104;SDS011;61296;50.526;30.792;2023-11-22T21:22:04;10.90;;;4.50;;
73104;SDS011;61296;50.526;30.792;2023-11-22T21:37:37;11.15;;;4.57;;
73104;SDS011;61296;50.526;30.792;2023-11-22T21:53:13;8.23;;;3.95;;
73104;SDS011;61296;50.526;30.792;2023-11-22T22:09:17;12.07;;;4.37;;
73104;SDS011;61296;50.526;30.792;2023-11-22T22:24:51;19.52;;;7.63;;
73104;SDS011;61296;50.526;30.792;2023-11-22T22:40:24;10.50;;;5.05;;
73104;SDS011;61296;50.526;30.792;2023-11-22T22:55:58;13.95;;;5.95;;
73104;SDS011;61296;50.526;30.792;2023-11-22T23:11:34;11.02;;;4.75;;
73104;SDS011;61296;50.526;30.792;2023-11-22T23:27:07;10.23;;;4.95;;
73104;SDS011;61296;50.526;30.792;2023-11-22T23:42:43;21.45;;;8.07;;
73104;SDS011;61296;50.526;30.792;2023-11-22T23:58:17;7.00;;;3.80;;
